D/T METAR WX W/DIR W/SPE G/SPE TEMP DEWP
16/01/19 03:20 EGPO 160320Z AUTO 25005KT 9999 BKN031/// 06/04 Q0992 WSW (250°) 5.8mph 6°C 4°C
16/01/19 02:50 EGPO 160250Z AUTO 27006KT 9999 SCT037/// 06/04 Q0993 W (270°) 6.9mph 6°C 4°C
16/01/19 02:20 EGPO 160220Z AUTO 28006KT 9999 SCT025/// SCT035/// 06/04 Q0993 W (280°) 6.9mph 6°C 4°C
16/01/19 01:50 EGPO 160150Z AUTO 29009KT 9999 FEW023/// BKN033/// BKN041/// 06/04 Q0993 WNW (290°) 10.4mph 6°C 4°C
16/01/19 01:20 EGPO 160120Z AUTO 29008KT 9999 FEW039/// 06/04 Q0993 WNW (290°) 9.2mph 6°C 4°C
16/01/19 00:50 EGPO 160050Z AUTO 29011KT 9999 SCT029/// 06/04 Q0993 WNW (290°) 12.7mph 6°C 4°C
15/01/19 23:50 EGPO 152350Z AUTO 27012KT 9999 NCD 06/04 Q0993 W (270°) 13.8mph 6°C 4°C
15/01/19 23:20 EGPO 152320Z AUTO 28014KT 9999 SCT008/// BKN022/// BKN034/// 07/05 Q0994 RERA W (280°) 16.1mph 7°C 5°C
15/01/19 22:50 EGPO 152250Z AUTO 26017KT 9999 NCD 07/04 Q0993 W (260°) 19.6mph 7°C 4°C
15/01/19 22:20 EGPO 152220Z AUTO 26017KT 9999 NCD 07/05 Q0993 W (260°) 19.6mph 7°C 5°C
15/01/19 21:50 EGPO 152150Z AUTO 26020G30KT 9999 FEW014/// SCT027/// 07/05 Q0993 W (260°) 23.0mph 34.5mph 7°C 5°C
15/01/19 21:20 EGPO 152120Z AUTO 26019KT 9999 FEW012/// SCT019/// 08/06 Q0993 W (260°) 21.9mph 8°C 6°C
15/01/19 20:50 EGPO 152050Z AUTO 25021KT 9999 SCT015/// BKN024/// BKN033/// 09/07 Q0993 WSW (250°) 24.2mph 9°C 7°C
15/01/19 20:20 EGPO 152020Z AUTO 23020KT 9999 SCT025/// BKN036/// 10/07 Q0992 SW (230°) 23.0mph 10°C 7°C
15/01/19 19:50 EGPO 151950Z 23021KT 9999 FEW006 SCT013 BKN024 10/08 Q0993 SW (230°) 24.2mph 10°C 8°C
15/01/19 19:20 EGPO 151920Z 22021KT 8000 -RA FEW006 BKN014 BKN023 09/08 Q0993 -RA SW (220°) 24.2mph 9°C 8°C
15/01/19 18:50 EGPO 151850Z 21019KT 9999 -RA FEW006 BKN014 BKN023 09/08 Q0994 -RA SSW (210°) 21.9mph 9°C 8°C
15/01/19 18:20 EGPO 151820Z 21019KT 9999 -RA FEW007 SCT016 BKN025 09/08 Q0994 -RA SSW (210°) 21.9mph 9°C 8°C
15/01/19 17:50 EGPO 151750Z 21018KT 9999 -RA FEW012 SCT018 BKN031 09/07 Q0995 -RA SSW (210°) 20.7mph 9°C 7°C
15/01/19 17:20 EGPO 151720Z 22017KT 9999 -RA FEW012 SCT019 BKN031 09/07 Q0996 -RA SW (220°) 19.6mph 9°C 7°C
15/01/19 16:50 EGPO 151650Z 23018KT 9999 FEW012 SCT020 BKN028 09/06 Q0997 SW (230°) 20.7mph 9°C 6°C
15/01/19 16:20 EGPO 151620Z 22016KT 9999 FEW012 SCT022 BKN030 09/07 Q0997 SW (220°) 18.4mph 9°C 7°C
15/01/19 15:50 EGPO 151550Z 21014KT 9999 -RA FEW012 SCT019 BKN036 09/07 Q0998 -RA SSW (210°) 16.1mph 9°C 7°C
15/01/19 15:20 EGPO 151520Z 22016KT 9999 -RA FEW012 SCT019 BKN030 09/07 Q0998 -RA SW (220°) 18.4mph 9°C 7°C
15/01/19 14:50 EGPO 151450Z 23018KT 9999 -RA FEW008 SCT016 BKN025 10/07 Q0999 -RA SW (230°) 20.7mph 10°C 7°C
15/01/19 14:20 EGPO 151420Z 24023G34KT 9999 FEW006 SCT016 BKN025 10/08 Q0999 WSW (240°) 26.5mph 39.1mph 10°C 8°C
15/01/19 13:50 EGPO 151350Z 25019G30KT 6000 -RADZ SCT004 BKN011 09/09 Q0999 RERA REDZ -RA -DZ WSW (250°) 21.9mph 34.5mph 9°C 9°C
15/01/19 13:20 EGPO 151320Z 21010KT 4000 -RADZ BKN004 OVC010 08/07 Q1000 -RA -DZ SSW (210°) 11.5mph 8°C 7°C
15/01/19 12:50 EGPO 151250Z 20007KT 6000 -RADZ SCT006 SCT012 BKN018 07/07 Q1001 -RA -DZ SSW (200°) 8.1mph 7°C 7°C
15/01/19 12:20 EGPO 151220Z 21005KT 6000 -RADZ SCT006 SCT012 BKN026 07/06 Q1002 -RA -DZ SSW (210°) 5.8mph 7°C 6°C
15/01/19 11:50 EGPO 151150Z 21009KT 9999 -RADZ FEW008 SCT014 BKN026 07/06 Q1002 -RA -DZ SSW (210°) 10.4mph 7°C 6°C
15/01/19 11:20 EGPO 151120Z 21006KT 9999 -RADZ SCT014 BKN026 BKN032 07/06 Q1003 -RA -DZ SSW (210°) 6.9mph 7°C 6°C
15/01/19 10:50 EGPO 151050Z 22005KT 9999 -RADZ SCT016 BKN038 07/06 Q1003 -RA -DZ SW (220°) 5.8mph 7°C 6°C
15/01/19 10:20 EGPO 151020Z 22005KT 9999 -RA FEW022 BKN038 07/06 Q1004 -RA SW (220°) 5.8mph 7°C 6°C
15/01/19 09:50 EGPO 150950Z 24005KT 9999 -RA FEW022 SCT042 07/05 Q1004 -RA WSW (240°) 5.8mph 7°C 5°C
15/01/19 09:20 EGPO 150920Z 24008KT 9999 -RA FEW022 SCT042 07/05 Q1004 -RA WSW (240°) 9.2mph 7°C 5°C
15/01/19 08:50 EGPO 150850Z VRB03KT 9999 -RA FEW014 SCT020 BKN042 07/06 Q1005 -RA N (0°) 3.5mph 7°C 6°C
15/01/19 08:20 EGPO 150820Z 22003KT 9999 -RA FEW014 SCT020 BKN042 07/05 Q1005 -RA SW (220°) 3.5mph 7°C 5°C
15/01/19 07:50 EGPO 150750Z 23004KT 9999 FEW015 SCT034 06/05 Q1005 SW (230°) 4.6mph 6°C 5°C
15/01/19 07:20 EGPO 150720Z 24004KT 9999 SCT026 SCT034 06/05 Q1005 WSW (240°) 4.6mph 6°C 5°C
15/01/19 06:50 EGPO 150650Z 24004KT 9999 SCT026 SCT034 06/04 Q1005 WSW (240°) 4.6mph 6°C 4°C
15/01/19 06:20 EGPO 150620Z 25005KT 9999 FEW026 SCT034 06/04 Q1005 WSW (250°) 5.8mph 6°C 4°C
15/01/19 05:50 EGPO 150550Z 26006KT 9999 FEW036 06/04 Q1006 W (260°) 6.9mph 6°C 4°C
15/01/19 05:20 EGPO 150520Z 24005KT 9999 -RA SCT042 07/04 Q1006 -RA WSW (240°) 5.8mph 7°C 4°C
15/01/19 04:50 EGPO 150450Z AUTO 22005KT 9999 NCD 07/04 Q1006 SW (220°) 5.8mph 7°C 4°C
15/01/19 04:20 EGPO 150420Z AUTO 24006KT 9999 BKN034/// 07/04 Q1006 WSW (240°) 6.9mph 7°C 4°C
15/01/19 03:20 EGPO 150320Z AUTO 26007KT 9999 SCT028/// BKN033/// BKN041/// 08/05 Q1006 W (260°) 8.1mph 8°C 5°C
15/01/19 02:50 EGPO 150250Z AUTO 28012KT 9999 SCT033/// 08/05 Q1006 W (280°) 13.8mph 8°C 5°C
15/01/19 02:20 EGPO 150220Z AUTO 28014KT 9999 SCT023/// BKN036/// 09/06 Q1006 W (280°) 16.1mph 9°C 6°C
15/01/19 01:50 EGPO 150150Z AUTO 28018G28KT 9999 SCT008/// BKN027/// BKN047/// 09/07 Q1006 W (280°) 20.7mph 32.2mph 9°C 7°C
15/01/19 01:20 EGPO 150120Z AUTO 26017KT 9999 SCT007/// OVC010/// 10/09 Q1005 W (260°) 19.6mph 10°C 9°C
15/01/19 00:50 EGPO 150050Z AUTO 26015KT 9999 BKN006/// OVC012/// 10/09 Q1005 W (260°) 17.3mph 10°C 9°C
15/01/19 00:20 EGPO 150020Z AUTO 25013KT 9999 -RA BKN006/// BKN009/// OVC021/// 10/09 Q1006 -RA WSW (250°) 15.0mph 10°C 9°C
14/01/19 23:50 EGPO 142350Z AUTO 25016KT 8000 -RA FEW007/// BKN014/// OVC024/// 10/09 Q1006 -RA WSW (250°) 18.4mph 10°C 9°C
14/01/19 23:20 EGPO 142320Z AUTO 24016KT 5000 -RA BKN006/// BKN010/// OVC022/// 10/09 Q1006 -RA WSW (240°) 18.4mph 10°C 9°C
14/01/19 22:50 EGPO 142250Z AUTO 24016KT 6000 -RA BKN010/// OVC022/// 10/08 Q1006 -RA WSW (240°) 18.4mph 10°C 8°C
14/01/19 22:20 EGPO 142220Z AUTO 23012KT 9999 -RA BKN012/// OVC027/// 09/08 Q1007 -RA SW (230°) 13.8mph 9°C 8°C
14/01/19 21:50 EGPO 142150Z 23013KT 9999 RA FEW007 SCT009 BKN016 09/08 Q1007 RA SW (230°) 15.0mph 9°C 8°C
14/01/19 21:20 EGPO 142120Z 23013KT 9999 RA FEW007 SCT009 BKN016 09/08 Q1008 RA SW (230°) 15.0mph 9°C 8°C
14/01/19 20:50 EGPO 142050Z 24014KT 9999 RA FEW014 SCT020 BKN028 09/07 Q1008 RA WSW (240°) 16.1mph 9°C 7°C
14/01/19 20:20 EGPO 142020Z 24016KT 9999 RA FEW008 SCT014 BKN026 09/07 Q1009 RA WSW (240°) 18.4mph 9°C 7°C
14/01/19 19:50 EGPO 141950Z 23012KT 9999 FEW008 BKN016 08/07 Q1009 SW (230°) 13.8mph 8°C 7°C
14/01/19 19:20 EGPO 141920Z 22010KT 9999 FEW008 BKN018 08/07 Q1009 SW (220°) 11.5mph 8°C 7°C
14/01/19 18:50 EGPO 141850Z 21009KT 9999 -RA FEW006 SCT008 BKN015 07/07 Q1010 -RA SSW (210°) 10.4mph 7°C 7°C
14/01/19 18:20 EGPO 141820Z 20011KT 9999 -RADZ FEW003 BKN007 BKN011 07/07 Q1010 -RA -DZ SSW (200°) 12.7mph 7°C 7°C
14/01/19 17:50 EGPO 141750Z 21011KT 9999 -RA SCT007 SCT011 BKN014 07/06 Q1011 -RA SSW (210°) 12.7mph 7°C 6°C
14/01/19 17:20 EGPO 141720Z 21010KT 9999 -RA FEW008 SCT011 BKN018 07/06 Q1011 -RA SSW (210°) 11.5mph 7°C 6°C
14/01/19 16:50 EGPO 141650Z 21009KT 9999 -RA FEW008 BKN011 BKN018 06/05 Q1012 -RA SSW (210°) 10.4mph 6°C 5°C
14/01/19 16:20 EGPO 141620Z 21010KT 9999 -RA FEW008 SCT011 BKN015 06/05 Q1012 -RA SSW (210°) 11.5mph 6°C 5°C
14/01/19 15:50 EGPO 141550Z 21007KT 9999 VCSH FEW012 SCT020 BKN028 06/04 Q1012 VCSH SSW (210°) 8.1mph 6°C 4°C
14/01/19 15:20 EGPO 141520Z 22007KT 9999 FEW014 SCT032 BKN040 06/04 Q1013 SW (220°) 8.1mph 6°C 4°C
14/01/19 14:50 EGPO 141450Z 22006KT 9999 FEW014 SCT032 BKN045 07/04 Q1013 SW (220°) 6.9mph 7°C 4°C
14/01/19 14:20 EGPO 141420Z 23007KT 9999 FEW014 BKN032 07/04 Q1014 SW (230°) 8.1mph 7°C 4°C
14/01/19 13:50 EGPO 141350Z 22007KT 9999 FEW014 BKN032 06/04 Q1014 SW (220°) 8.1mph 6°C 4°C
14/01/19 13:20 EGPO 141320Z 22005KT 9999 FEW014 SCT034 06/04 Q1014 SW (220°) 5.8mph 6°C 4°C
14/01/19 12:50 EGPO 141250Z 23006KT 9999 FEW014 SCT034 05/04 Q1015 SW (230°) 6.9mph 5°C 4°C
14/01/19 12:20 EGPO 141220Z 26005KT 9999 FEW014 SCT034 05/03 Q1015 W (260°) 5.8mph 5°C 3°C
14/01/19 11:50 EGPO 141150Z 25005KT 9999 FEW014 FEW022CB 04/03 Q1015 WSW (250°) 5.8mph 4°C 3°C
14/01/19 11:20 EGPO 141120Z 29008KT 9999 FEW014 FEW022CB 04/03 Q1016 WNW (290°) 9.2mph 4°C 3°C
14/01/19 10:50 EGPO 141050Z 25006KT 9999 FEW014 FEW022CB 03/02 Q1015 WSW (250°) 6.9mph 3°C 2°C
14/01/19 10:20 EGPO 141020Z 26006KT 230V290 9999 FEW014 SCT022 03/02 Q1016 W (260°) 6.9mph 3°C 2°C
14/01/19 09:50 EGPO 140950Z 24006KT 210V270 9999 FEW014 SCT028 BKN042 02/01 Q1016 WSW (240°) 6.9mph 2°C 1°C
14/01/19 09:20 EGPO 140920Z 22008KT 9999 -RA FEW014 SCT028 BKN042 03/01 Q1016 -RA SW (220°) 9.2mph 3°C 1°C
14/01/19 08:50 EGPO 140850Z 23009KT 9999 FEW036 02/01 Q1016 SW (230°) 10.4mph 2°C 1°C
14/01/19 08:20 EGPO 140820Z 20006KT 9999 FEW036 01/M00 Q1016 SSW (200°) 6.9mph 1°C 0°C
14/01/19 07:50 EGPO 140750Z 22007KT 9999 FEW048 00/M00 Q1016 SW (220°) 8.1mph 0°C 0°C
14/01/19 07:20 EGPO 140720Z 25006KT 9999 FEW048 M00/M01 Q1016 WSW (250°) 6.9mph 0°C -1°C
14/01/19 06:50 EGPO 140650Z 25005KT 9999 FEW048 00/M00 Q1016 WSW (250°) 5.8mph 0°C 0°C
14/01/19 06:20 EGPO 140620Z 00000KT 9999 FEW048 M01/M02 Q1016 N (0°) -1°C -2°C
14/01/19 05:50 EGPO 140550Z 00000KT 9999 FEW048 M00/M01 Q1016 N (0°) 0°C -1°C
14/01/19 05:20 EGPO 140520Z 00000KT 9999 FEW048 00/M00 Q1017 N (0°) 0°C 0°C
14/01/19 04:50 EGPO 140450Z AUTO 25003KT 9999 NCD 00/M01 Q1016 WSW (250°) 3.5mph 0°C -1°C
14/01/19 04:20 EGPO 140420Z AUTO 00000KT 9999 NCD 01/M00 Q1016 N (0°) 1°C 0°C
14/01/19 03:50 EGPO 140350Z AUTO 00000KT 9999 NCD 01/M00 Q1017 N (0°) 1°C 0°C
14/01/19 03:20 EGPO 140320Z AUTO VRB02KT 9999 NCD 03/01 Q1017 N (0°) 2.3mph 3°C 1°C
14/01/19 02:50 EGPO 140250Z AUTO 03005KT 9999 FEW021/// 03/01 Q1016 NNE (30°) 5.8mph 3°C 1°C
14/01/19 02:20 EGPO 140220Z AUTO 36006KT 330V040 9999 SCT019/// 04/01 Q1016 N (360°) 6.9mph 4°C 1°C
14/01/19 01:50 EGPO 140150Z AUTO 03006KT 9999 BKN017/// OVC037/// 05/02 Q1016 NNE (30°) 6.9mph 5°C 2°C
14/01/19 01:20 EGPO 140120Z AUTO 03006KT 360V070 9999 BKN021/// BKN028/// 05/01 Q1015 NNE (30°) 6.9mph 5°C 1°C
14/01/19 00:50 EGPO 140050Z AUTO 04007KT 9999 BKN022/// 05/01 Q1015 NE (40°) 8.1mph 5°C 1°C
14/01/19 00:20 EGPO 140020Z AUTO 05008KT 9999 BKN020/// OVC028/// 05/01 Q1015 NE (50°) 9.2mph 5°C 1°C
13/01/19 23:50 EGPO 132350Z AUTO 06010KT 9999 SCT017/// BKN022/// 05/02 Q1014 ENE (60°) 11.5mph 5°C 2°C
13/01/19 23:20 EGPO 132320Z AUTO 05011KT 9999 SCT015/// BKN020/// BKN024/// 05/02 Q1014 NE (50°) 12.7mph 5°C 2°C
13/01/19 22:50 EGPO 132250Z AUTO 05013KT 9999 BKN013/// 05/02 Q1013 NE (50°) 15.0mph 5°C 2°C
13/01/19 22:20 EGPO 132220Z AUTO 05013KT 9999 FEW007/// SCT014/// BKN018/// 05/03 Q1012 RERA NE (50°) 15.0mph 5°C 3°C
13/01/19 21:50 EGPO 132150Z AUTO 05014KT 9999 SCT014/// BKN018/// 05/02 Q1012 NE (50°) 16.1mph 5°C 2°C
13/01/19 21:20 EGPO 132120Z AUTO 05013KT 9999 BKN013/// BKN018/// BKN022/// 06/03 Q1011 NE (50°) 15.0mph 6°C 3°C
13/01/19 20:50 EGPO 132050Z AUTO 04014KT 9999 BKN012/// BKN018/// 06/04 Q1010 NE (40°) 16.1mph 6°C 4°C
13/01/19 20:20 EGPO 132020Z AUTO 35010KT 9999 FEW020/// SCT028/// BKN037/// 06/04 Q1009 N (350°) 11.5mph 6°C 4°C
13/01/19 19:50 EGPO 131950Z AUTO 33007KT 9999 FEW026/// BKN034/// 05/04 Q1009 NNW (330°) 8.1mph 5°C 4°C
13/01/19 19:20 EGPO 131920Z AUTO 34006KT 9999 FEW026/// 05/04 Q1008 NNW (340°) 6.9mph 5°C 4°C
13/01/19 18:50 EGPO 131850Z AUTO 32014KT 9999 -RA SCT018/// BKN024/// BKN033/// 06/05 Q1007 -RA NW (320°) 16.1mph 6°C 5°C
13/01/19 18:20 EGPO 131820Z AUTO 32014KT 9999 FEW023/// BKN028/// BKN038/// 06/04 Q1007 NW (320°) 16.1mph 6°C 4°C
13/01/19 17:50 EGPO 131750Z AUTO 31012KT 9999 FEW029/// SCT044/// 07/04 Q1006 NW (310°) 13.8mph 7°C 4°C
13/01/19 17:20 EGPO 131720Z 31014KT 9999 VCSH FEW008 FEW018CB SCT023 07/03 Q1005 VCSH NW (310°) 16.1mph 7°C 3°C
13/01/19 16:50 EGPO 131650Z 31014KT 9999 VCSH FEW008 FEW018CB SCT023 07/04 Q1005 VCSH NW (310°) 16.1mph 7°C 4°C
13/01/19 16:20 EGPO 131620Z 30013KT 9999 VCSH FEW008 FEW018CB SCT023 07/04 Q1004 VCSH WNW (300°) 15.0mph 7°C 4°C
13/01/19 15:50 EGPO 131550Z 31016KT 9999 VCSH FEW008 SCT018CB SCT023 07/04 Q1004 VCSH NW (310°) 18.4mph 7°C 4°C
13/01/19 15:20 EGPO 131520Z 30016KT 9999 VCSH FEW008 SCT018CB SCT023 06/04 Q1004 VCSH WNW (300°) 18.4mph 6°C 4°C
13/01/19 14:20 EGPO 131420Z 30019KT 9999 VCSH FEW008 FEW018CB SCT025 07/04 Q1003 VCSH WNW (300°) 21.9mph 7°C 4°C
13/01/19 13:50 EGPO 131350Z 29022KT 9999 VCSH FEW008 FEW016CB SCT025 06/04 Q1004 VCSH WNW (290°) 25.3mph 6°C 4°C
13/01/19 13:20 EGPO 131320Z 29017KT 9999 VCSH FEW008 SCT016CB SCT025 08/05 Q1003 RESHRA VCSH WNW (290°) 19.6mph 8°C 5°C
13/01/19 12:50 EGPO 131250Z 30017KT 9999 -SHRA FEW008 SCT016CB SCT025 07/05 Q1004 RESHRA -SHRA WNW (300°) 19.6mph 7°C 5°C
13/01/19 11:50 EGPO 131150Z 29018KT 9999 -SHRA FEW008 SCT016CB SCT027 08/04 Q1003 -SHRA WNW (290°) 20.7mph 8°C 4°C
13/01/19 11:20 EGPO 131120Z 30029KT 9999 SHRA FEW007 SCT016CB BKN027 07/04 Q1004 SHRA WNW (300°) 33.4mph 7°C 4°C
13/01/19 10:50 EGPO 131050Z 30020G32KT 9999 -SHRA FEW007 SCT018CB SCT027 07/05 Q1004 -SHRA WNW (300°) 23.0mph 36.8mph 7°C 5°C
13/01/19 09:50 EGPO 130950Z 30018KT 9999 VCSH FEW008 SCT024 07/04 Q1003 RERA VCSH WNW (300°) 20.7mph 7°C 4°C
13/01/19 09:20 EGPO 130920Z AUTO 30021KT 9999 SCT023/// SCT029/// BKN038/// 08/05 Q1003 RERA WNW (300°) 24.2mph 8°C 5°C
13/01/19 08:20 EGPO 130820Z AUTO 29017KT 9999 SCT029/// 08/05 Q1003 WNW (290°) 19.6mph 8°C 5°C
13/01/19 07:50 EGPO 130750Z AUTO 29019G29KT 9999 -RA FEW019/// BKN034/// 08/05 Q1003 -RA WNW (290°) 21.9mph 33.4mph 8°C 5°C
13/01/19 07:20 EGPO 130720Z AUTO 29021KT 9999 -RA FEW010/// SCT023/// 08/05 Q1002 RERA -RA WNW (290°) 24.2mph 8°C 5°C
13/01/19 06:50 EGPO 130650Z AUTO 29022G32KT 7000 -RA FEW010/// BKN032/// 08/04 Q1003 -RA WNW (290°) 25.3mph 36.8mph 8°C 4°C
13/01/19 06:20 EGPO 130620Z AUTO 29022G33KT 9999 FEW030/// SCT037/// BKN045/// 08/05 Q1002 WNW (290°) 25.3mph 38.0mph 8°C 5°C
13/01/19 05:50 EGPO 130550Z AUTO 28020G30KT 9999 BKN041/// 09/06 Q1002 W (280°) 23.0mph 34.5mph 9°C 6°C
13/01/19 05:20 EGPO 130520Z AUTO 28025G35KT 9999 FEW017/// SCT026/// BKN032/// 08/06 Q1003 W (280°) 28.8mph 40.3mph 8°C 6°C
13/01/19 04:50 EGPO 130450Z AUTO 29023KT 9999 OVC036/// 09/05 Q1003 WNW (290°) 26.5mph 9°C 5°C
13/01/19 04:20 EGPO 130420Z AUTO 28025G39KT 9999 FEW013/// BKN030/// OVC041/// 09/07 Q1003 W (280°) 28.8mph 44.9mph 9°C 7°C
13/01/19 03:50 EGPO 130350Z AUTO 28024G35KT 9999 SCT012/// BKN017/// BKN022/// 09/08 Q1003 W (280°) 27.6mph 40.3mph 9°C 8°C
13/01/19 03:20 EGPO 130320Z 28025G42KT 9999 -RA SCT006 SCT011 BKN024 10/07 Q1003 -RA W (280°) 28.8mph 48.3mph 10°C 7°C
13/01/19 02:50 EGPO 130250Z 28022G32KT 6000 -RADZ FEW004 SCT006 BKN011 10/08 Q1003 -RA -DZ W (280°) 25.3mph 36.8mph 10°C 8°C
13/01/19 02:20 EGPO 130220Z 28023KT 6000 -RADZ BKN004 OVC011 10/09 Q1004 -RA -DZ W (280°) 26.5mph 10°C 9°C
13/01/19 01:50 EGPO 130150Z 28023G33KT 4000 -RADZ BKN004 OVC010 10/09 Q1004 -RA -DZ W (280°) 26.5mph 38.0mph 10°C 9°C
13/01/19 01:20 EGPO 130120Z 28021G31KT 4000 -RADZ BKN004 OVC010 10/09 Q1004 RERA -RA -DZ W (280°) 24.2mph 35.7mph 10°C 9°C
13/01/19 00:50 EGPO 130050Z AUTO 28020KT 4800 -RA BKN005/// OVC020/// 10/09 Q1005 RERA -RA W (280°) 23.0mph 10°C 9°C